sensor_id;sensor_type;location;lat;lon;timestamp;pressure;altitude;pressure_sealevel;temperature;humidity
55456;BME280;63021;52.836;6.376;2022-12-28T00:00:08;101531.91;;;5.56;79.88
55456;BME280;63021;52.836;6.376;2022-12-28T00:02:33;101527.66;;;5.53;80.48
55456;BME280;63021;52.836;6.376;2022-12-28T00:04:59;101520.47;;;5.55;79.70
55456;BME280;63021;52.836;6.376;2022-12-28T00:07:24;101517.00;;;5.55;79.99
55456;BME280;63021;52.836;6.376;2022-12-28T00:09:50;101514.16;;;5.58;79.75
55456;BME280;63021;52.836;6.376;2022-12-28T00:12:15;101515.09;;;5.57;80.23
55456;BME280;63021;52.836;6.376;2022-12-28T00:14:40;101502.88;;;5.56;80.38
55456;BME280;63021;52.836;6.376;2022-12-28T00:17:06;101500.22;;;5.56;80.22
55456;BME280;63021;52.836;6.376;2022-12-28T00:19:32;101492.28;;;5.56;79.92
55456;BME280;63021;52.836;6.376;2022-12-28T00:21:57;101478.22;;;5.55;80.79
55456;BME280;63021;52.836;6.376;2022-12-28T00:24:24;101486.03;;;5.57;80.48
55456;BME280;63021;52.836;6.376;2022-12-28T00:26:50;101477.28;;;5.57;80.42
55456;BME280;63021;52.836;6.376;2022-12-28T00:29:16;101481.72;;;5.56;81.22
55456;BME280;63021;52.836;6.376;2022-12-28T00:31:42;101471.06;;;5.58;80.39
55456;BME280;63021;52.836;6.376;2022-12-28T00:34:09;101469.25;;;5.58;80.34
55456;BME280;63021;52.836;6.376;2022-12-28T00:36:35;101464.91;;;5.57;80.70
55456;BME280;63021;52.836;6.376;2022-12-28T00:39:00;101462.19;;;5.59;80.19
55456;BME280;63021;52.836;6.376;2022-12-28T00:41:26;101448.13;;;5.58;80.54
55456;BME280;63021;52.836;6.376;2022-12-28T00:43:51;101436.63;;;5.59;81.24
55456;BME280;63021;52.836;6.376;2022-12-28T00:46:17;101415.59;;;5.58;80.96
55456;BME280;63021;52.836;6.376;2022-12-28T00:48:42;101402.41;;;5.58;81.49
55456;BME280;63021;52.836;6.376;2022-12-28T00:51:13;101405.13;;;5.56;81.00
55456;BME280;63021;52.836;6.376;2022-12-28T00:53:39;101390.97;;;5.57;81.37
55456;BME280;63021;52.836;6.376;2022-12-28T00:56:12;101396.25;;;5.57;81.16
55456;BME280;63021;52.836;6.376;2022-12-28T00:58:38;101383.03;;;5.57;81.44
55456;BME280;63021;52.836;6.376;2022-12-28T01:01:05;101379.56;;;5.57;81.62
55456;BME280;63021;52.836;6.376;2022-12-28T01:03:35;101380.50;;;5.55;82.00
55456;BME280;63021;52.836;6.376;2022-12-28T01:06:07;101371.75;;;5.55;81.39
55456;BME280;63021;52.836;6.376;2022-12-28T01:08:35;101364.66;;;5.55;80.85
55456;BME280;63021;52.836;6.376;2022-12-28T01:11:08;101349.75;;;5.54;81.60
55456;BME280;63021;52.836;6.376;2022-12-28T01:13:35;101342.59;;;5.57;81.97
55456;BME280;63021;52.836;6.376;2022-12-28T01:16:12;101335.41;;;5.59;81.63
55456;BME280;63021;52.836;6.376;2022-12-28T01:18:38;101326.75;;;5.57;81.83
55456;BME280;63021;52.836;6.376;2022-12-28T01:21:14;101329.28;;;5.58;81.45
55456;BME280;63021;52.836;6.376;2022-12-28T01:23:40;101304.69;;;5.58;82.28
55456;BME280;63021;52.836;6.376;2022-12-28T01:26:06;101301.94;;;5.59;81.93
55456;BME280;63021;52.836;6.376;2022-12-28T01:28:32;101291.38;;;5.59;81.94
55456;BME280;63021;52.836;6.376;2022-12-28T01:31:09;101284.16;;;5.61;82.70
55456;BME280;63021;52.836;6.376;2022-12-28T01:33:35;101286.81;;;5.61;81.79
55456;BME280;63021;52.836;6.376;2022-12-28T01:36:06;101284.94;;;5.63;82.28
55456;BME280;63021;52.836;6.376;2022-12-28T01:38:31;101279.66;;;5.63;82.21
55456;BME280;63021;52.836;6.376;2022-12-28T01:40:57;101279.53;;;5.65;81.95
55456;BME280;63021;52.836;6.376;2022-12-28T01:46:15;101264.41;;;5.67;82.32
55456;BME280;63021;52.836;6.376;2022-12-28T01:48:49;101258.31;;;5.66;81.67
55456;BME280;63021;52.836;6.376;2022-12-28T01:51:18;101253.75;;;5.68;82.07
55456;BME280;63021;52.836;6.376;2022-12-28T01:53:45;101243.94;;;5.70;82.28
55456;BME280;63021;52.836;6.376;2022-12-28T01:56:11;101257.97;;;5.71;82.14
55456;BME280;63021;52.836;6.376;2022-12-28T01:58:37;101252.59;;;5.72;81.97
55456;BME280;63021;52.836;6.376;2022-12-28T02:01:04;101248.13;;;5.73;82.51
55456;BME280;63021;52.836;6.376;2022-12-28T02:03:31;101246.25;;;5.75;82.24
55456;BME280;63021;52.836;6.376;2022-12-28T02:06:00;101239.16;;;5.76;82.56
55456;BME280;63021;52.836;6.376;2022-12-28T02:11:12;101234.75;;;5.76;82.42
55456;BME280;63021;52.836;6.376;2022-12-28T02:13:38;101225.97;;;5.76;82.47
55456;BME280;63021;52.836;6.376;2022-12-28T02:16:04;101218.03;;;5.76;82.65
55456;BME280;63021;52.836;6.376;2022-12-28T02:18:30;101229.25;;;5.79;82.60
55456;BME280;63021;52.836;6.376;2022-12-28T02:32:02;101182.63;;;5.78;82.69
55456;BME280;63021;52.836;6.376;2022-12-28T02:34:40;101181.69;;;5.79;82.82
55456;BME280;63021;52.836;6.376;2022-12-28T02:40:13;101159.81;;;5.77;83.19
55456;BME280;63021;52.836;6.376;2022-12-28T02:42:40;101164.03;;;5.80;83.19
55456;BME280;63021;52.836;6.376;2022-12-28T02:45:08;101146.25;;;5.82;83.63
55456;BME280;63021;52.836;6.376;2022-12-28T02:48:10;101140.97;;;5.82;83.20
55456;BME280;63021;52.836;6.376;2022-12-28T02:56:44;101128.53;;;5.84;83.38
55456;BME280;63021;52.836;6.376;2022-12-28T03:02:19;101112.44;;;5.87;83.86
55456;BME280;63021;52.836;6.376;2022-12-28T03:10:33;101113.69;;;5.94;83.86
55456;BME280;63021;52.836;6.376;2022-12-28T03:13:06;101108.28;;;5.96;83.39
55456;BME280;63021;52.836;6.376;2022-12-28T03:15:54;101096.78;;;5.97;83.68
55456;BME280;63021;52.836;6.376;2022-12-28T03:18:22;101107.16;;;6.00;83.89
55456;BME280;63021;52.836;6.376;2022-12-28T03:21:08;101095.53;;;6.02;84.58
55456;BME280;63021;52.836;6.376;2022-12-28T03:23:54;101085.66;;;6.04;84.40
55456;BME280;63021;52.836;6.376;2022-12-28T03:26:43;101084.72;;;6.05;83.86
55456;BME280;63021;52.836;6.376;2022-12-28T03:29:32;101089.06;;;6.06;83.93
55456;BME280;63021;52.836;6.376;2022-12-28T03:32:18;101085.31;;;6.09;83.81
55456;BME280;63021;52.836;6.376;2022-12-28T03:34:44;101083.56;;;6.10;84.00
55456;BME280;63021;52.836;6.376;2022-12-28T03:39:59;101067.34;;;6.14;84.56
55456;BME280;63021;52.836;6.376;2022-12-28T03:42:34;101070.09;;;6.13;84.15
55456;BME280;63021;52.836;6.376;2022-12-28T03:48:07;101058.47;;;6.15;84.82
55456;BME280;63021;52.836;6.376;2022-12-28T03:50:35;101049.47;;;6.18;84.56
55456;BME280;63021;52.836;6.376;2022-12-28T03:53:02;101060.66;;;6.21;85.23
55456;BME280;63021;52.836;6.376;2022-12-28T03:55:28;101035.91;;;6.22;85.53
55456;BME280;63021;52.836;6.376;2022-12-28T03:57:53;101040.00;;;6.27;84.97
55456;BME280;63021;52.836;6.376;2022-12-28T04:00:19;101031.09;;;6.28;84.96
55456;BME280;63021;52.836;6.376;2022-12-28T04:02:45;101028.34;;;6.29;85.21
55456;BME280;63021;52.836;6.376;2022-12-28T04:05:10;101025.63;;;6.31;85.21
55456;BME280;63021;52.836;6.376;2022-12-28T04:07:35;101025.50;;;6.32;85.11
55456;BME280;63021;52.836;6.376;2022-12-28T04:10:01;101020.91;;;6.34;85.79
55456;BME280;63021;52.836;6.376;2022-12-28T04:12:26;101026.94;;;6.36;85.42
55456;BME280;63021;52.836;6.376;2022-12-28T04:14:52;101019.84;;;6.37;85.53
55456;BME280;63021;52.836;6.376;2022-12-28T04:17:17;101008.34;;;6.38;85.42
55456;BME280;63021;52.836;6.376;2022-12-28T04:19:42;100998.47;;;6.40;86.25
55456;BME280;63021;52.836;6.376;2022-12-28T04:22:08;101007.13;;;6.42;85.38
55456;BME280;63021;52.836;6.376;2022-12-28T04:24:33;101007.97;;;6.43;86.02
55456;BME280;63021;52.836;6.376;2022-12-28T04:26:59;101000.88;;;6.43;85.99
55456;BME280;63021;52.836;6.376;2022-12-28T04:29:24;101000.75;;;6.45;86.01
55456;BME280;63021;52.836;6.376;2022-12-28T04:31:49;100993.56;;;6.47;86.14
55456;BME280;63021;52.836;6.376;2022-12-28T04:34:15;100996.91;;;6.49;86.62
55456;BME280;63021;52.836;6.376;2022-12-28T04:36:40;100991.41;;;6.52;86.27
55456;BME280;63021;52.836;6.376;2022-12-28T04:39:07;100995.72;;;6.53;86.14
55456;BME280;63021;52.836;6.376;2022-12-28T04:41:32;100983.22;;;6.55;86.01
55456;BME280;63021;52.836;6.376;2022-12-28T04:43:58;100983.00;;;6.58;86.21
55456;BME280;63021;52.836;6.376;2022-12-28T04:46:24;100989.00;;;6.60;85.96
55456;BME280;63021;52.836;6.376;2022-12-28T04:48:50;100972.91;;;6.63;86.37
55456;BME280;63021;52.836;6.376;2022-12-28T04:51:23;100970.13;;;6.65;85.93
55456;BME280;63021;52.836;6.376;2022-12-28T04:53:50;100971.81;;;6.66;86.96
55456;BME280;63021;52.836;6.376;2022-12-28T04:56:17;100977.00;;;6.67;86.32
55456;BME280;63021;52.836;6.376;2022-12-28T04:58:42;100967.00;;;6.71;86.75
55456;BME280;63021;52.836;6.376;2022-12-28T05:01:10;100979.16;;;6.73;86.85
55456;BME280;63021;52.836;6.376;2022-12-28T05:03:37;100969.31;;;6.75;86.14
55456;BME280;63021;52.836;6.376;2022-12-28T05:06:04;100974.50;;;6.77;86.89
55456;BME280;63021;52.836;6.376;2022-12-28T05:08:32;100979.53;;;6.80;86.26
55456;BME280;63021;52.836;6.376;2022-12-28T05:11:02;100976.66;;;6.83;86.96
55456;BME280;63021;52.836;6.376;2022-12-28T05:13:28;100966.81;;;6.85;86.59
55456;BME280;63021;52.836;6.376;2022-12-28T05:15:54;100978.94;;;6.88;86.69
55456;BME280;63021;52.836;6.376;2022-12-28T05:18:20;100995.44;;;6.91;86.67
55456;BME280;63021;52.836;6.376;2022-12-28T05:20:45;100980.13;;;6.95;86.60
55456;BME280;63021;52.836;6.376;2022-12-28T05:23:10;100980.00;;;6.97;86.58
55456;BME280;63021;52.836;6.376;2022-12-28T05:25:36;100984.97;;;7.01;86.70
55456;BME280;63021;52.836;6.376;2022-12-28T05:28:02;100981.22;;;7.04;87.11
55456;BME280;63021;52.836;6.376;2022-12-28T05:30:27;100989.91;;;7.06;87.01
55456;BME280;63021;52.836;6.376;2022-12-28T05:32:52;100979.06;;;7.09;87.42
55456;BME280;63021;52.836;6.376;2022-12-28T05:35:18;100977.97;;;7.11;86.96
55456;BME280;63021;52.836;6.376;2022-12-28T05:37:43;100978.69;;;7.14;87.03
55456;BME280;63021;52.836;6.376;2022-12-28T05:40:09;100982.91;;;7.16;87.34
55456;BME280;63021;52.836;6.376;2022-12-28T05:42:35;100980.88;;;7.20;87.00
55456;BME280;63021;52.836;6.376;2022-12-28T05:45:00;100971.69;;;7.24;87.51
55456;BME280;63021;52.836;6.376;2022-12-28T05:47:26;100967.38;;;7.23;87.40
55456;BME280;63021;52.836;6.376;2022-12-28T05:49:51;100959.19;;;7.26;86.91
55456;BME280;63021;52.836;6.376;2022-12-28T05:52:17;100960.75;;;7.28;86.57
55456;BME280;63021;52.836;6.376;2022-12-28T05:54:42;100953.66;;;7.29;87.46
55456;BME280;63021;52.836;6.376;2022-12-28T05:57:08;100943.66;;;7.33;87.36
55456;BME280;63021;52.836;6.376;2022-12-28T05:59:33;100951.25;;;7.37;86.68
55456;BME280;63021;52.836;6.376;2022-12-28T06:01:59;100948.47;;;7.39;86.96
55456;BME280;63021;52.836;6.376;2022-12-28T06:04:24;100945.56;;;7.42;86.58
55456;BME280;63021;52.836;6.376;2022-12-28T06:06:49;100944.59;;;7.43;86.63
55456;BME280;63021;52.836;6.376;2022-12-28T06:09:15;100942.78;;;7.43;86.63
55456;BME280;63021;52.836;6.376;2022-12-28T06:11:41;100940.84;;;7.45;86.80
55456;BME280;63021;52.836;6.376;2022-12-28T06:14:07;100944.09;;;7.49;87.42
55456;BME280;63021;52.836;6.376;2022-12-28T06:16:34;100936.97;;;7.50;86.87
55456;BME280;63021;52.836;6.376;2022-12-28T06:19:05;100950.97;;;7.52;87.75
55456;BME280;63021;52.836;6.376;2022-12-28T06:21:33;100942.75;;;7.55;87.67
55456;BME280;63021;52.836;6.376;2022-12-28T06:24:00;100932.88;;;7.57;86.69
55456;BME280;63021;52.836;6.376;2022-12-28T06:26:28;100949.50;;;7.59;87.61
55456;BME280;63021;52.836;6.376;2022-12-28T06:28:54;100947.69;;;7.59;87.21
55456;BME280;63021;52.836;6.376;2022-12-28T06:31:21;100937.06;;;7.59;87.46
55456;BME280;63021;52.836;6.376;2022-12-28T06:33:48;100949.25;;;7.62;87.74
55456;BME280;63021;52.836;6.376;2022-12-28T06:36:17;100945.75;;;7.61;87.56
55456;BME280;63021;52.836;6.376;2022-12-28T06:38:43;100942.00;;;7.64;87.28
55456;BME280;63021;52.836;6.376;2022-12-28T06:41:10;100951.63;;;7.65;87.03
55456;BME280;63021;52.836;6.376;2022-12-28T06:43:37;100926.69;;;7.68;87.06
55456;BME280;63021;52.836;6.376;2022-12-28T06:46:04;100937.19;;;7.69;87.37
55456;BME280;63021;52.836;6.376;2022-12-28T06:48:30;100919.59;;;7.68;87.12
55456;BME280;63021;52.836;6.376;2022-12-28T06:50:58;100930.78;;;7.72;87.80
55456;BME280;63021;52.836;6.376;2022-12-28T06:53:25;100925.34;;;7.73;87.40
55456;BME280;63021;52.836;6.376;2022-12-28T06:55:59;100929.69;;;7.74;87.73
55456;BME280;63021;52.836;6.376;2022-12-28T06:58:25;100928.84;;;7.74;87.75
55456;BME280;63021;52.836;6.376;2022-12-28T07:00:51;100930.78;;;7.72;87.52
55456;BME280;63021;52.836;6.376;2022-12-28T07:03:16;100934.13;;;7.74;87.01
55456;BME280;63021;52.836;6.376;2022-12-28T07:05:42;100937.66;;;7.74;87.28
55456;BME280;63021;52.836;6.376;2022-12-28T07:08:08;100925.09;;;7.76;87.29
55456;BME280;63021;52.836;6.376;2022-12-28T07:10:34;100924.84;;;7.79;87.73
55456;BME280;63021;52.836;6.376;2022-12-28T07:12:59;100924.84;;;7.79;87.72
55456;BME280;63021;52.836;6.376;2022-12-28T07:15:24;100929.88;;;7.83;87.43
55456;BME280;63021;52.836;6.376;2022-12-28T07:17:50;100923.63;;;7.84;87.55
55456;BME280;63021;52.836;6.376;2022-12-28T07:20:15;100928.78;;;7.85;87.00
55456;BME280;63021;52.836;6.376;2022-12-28T07:22:41;100928.66;;;7.87;87.42
55456;BME280;63021;52.836;6.376;2022-12-28T07:25:07;100939.13;;;7.88;87.61
55456;BME280;63021;52.836;6.376;2022-12-28T07:27:34;100939.00;;;7.90;87.61
55456;BME280;63021;52.836;6.376;2022-12-28T07:29:59;100938.75;;;7.93;87.35
55456;BME280;63021;52.836;6.376;2022-12-28T07:32:24;100944.66;;;7.96;87.58
55456;BME280;63021;52.836;6.376;2022-12-28T07:34:50;100935.75;;;7.97;87.65
55456;BME280;63021;52.836;6.376;2022-12-28T07:37:15;100940.91;;;7.99;87.09
55456;BME280;63021;52.836;6.376;2022-12-28T07:39:40;100942.56;;;8.00;87.44
55456;BME280;63021;52.836;6.376;2022-12-28T07:42:06;100945.13;;;8.02;87.27
55456;BME280;63021;52.836;6.376;2022-12-28T07:44:35;100945.13;;;8.02;87.92
55456;BME280;63021;52.836;6.376;2022-12-28T07:47:00;100944.13;;;8.03;87.57
55456;BME280;63021;52.836;6.376;2022-12-28T07:49:26;100948.22;;;8.07;87.38
55456;BME280;63021;52.836;6.376;2022-12-28T07:51:51;100942.78;;;8.08;87.66
55456;BME280;63021;52.836;6.376;2022-12-28T07:54:16;100942.66;;;8.10;86.96
55456;BME280;63021;52.836;6.376;2022-12-28T07:56:42;100953.13;;;8.11;87.57
55456;BME280;63021;52.836;6.376;2022-12-28T07:59:09;100938.06;;;8.12;87.88
55456;BME280;63021;52.836;6.376;2022-12-28T08:01:35;100946.88;;;8.12;87.19
55456;BME280;63021;52.836;6.376;2022-12-28T08:04:03;100939.59;;;8.14;87.75
55456;BME280;63021;52.836;6.376;2022-12-28T08:06:32;100943.00;;;8.17;87.67
55456;BME280;63021;52.836;6.376;2022-12-28T08:08:59;100935.72;;;8.19;87.35
55456;BME280;63021;52.836;6.376;2022-12-28T08:11:27;100942.72;;;8.20;87.15
55456;BME280;63021;52.836;6.376;2022-12-28T08:13:54;100936.47;;;8.21;87.56
55456;BME280;63021;52.836;6.376;2022-12-28T08:16:22;100935.50;;;8.22;87.41
55456;BME280;63021;52.836;6.376;2022-12-28T08:18:49;100940.91;;;8.20;87.83
55456;BME280;63021;52.836;6.376;2022-12-28T08:21:17;100939.81;;;8.23;87.42
55456;BME280;63021;52.836;6.376;2022-12-28T08:23:43;100944.16;;;8.24;87.66
55456;BME280;63021;52.836;6.376;2022-12-28T08:26:18;100943.19;;;8.25;87.66
55456;BME280;63021;52.836;6.376;2022-12-28T08:28:45;100937.03;;;8.24;87.46
55456;BME280;63021;52.836;6.376;2022-12-28T08:31:29;100937.75;;;8.26;87.23
55456;BME280;63021;52.836;6.376;2022-12-28T08:33:56;100929.81;;;8.26;87.00
55456;BME280;63021;52.836;6.376;2022-12-28T08:36:22;100918.19;;;8.27;87.41
55456;BME280;63021;52.836;6.376;2022-12-28T08:38:48;100928.81;;;8.27;87.30
55456;BME280;63021;52.836;6.376;2022-12-28T08:41:15;100929.66;;;8.28;86.75
55456;BME280;63021;52.836;6.376;2022-12-28T08:43:41;100928.81;;;8.27;87.43
55456;BME280;63021;52.836;6.376;2022-12-28T08:46:11;100934.72;;;8.31;87.73
55456;BME280;63021;52.836;6.376;2022-12-28T08:48:37;100930.09;;;8.33;87.72
55456;BME280;63021;52.836;6.376;2022-12-28T08:51:09;100915.03;;;8.33;87.43
55456;BME280;63021;52.836;6.376;2022-12-28T08:53:35;100926.50;;;8.34;87.33
55456;BME280;63021;52.836;6.376;2022-12-28T08:56:06;100930.81;;;8.35;88.23
55456;BME280;63021;52.836;6.376;2022-12-28T08:58:34;100934.19;;;8.37;87.71
55456;BME280;63021;52.836;6.376;2022-12-28T09:01:14;100931.25;;;8.40;87.76
55456;BME280;63021;52.836;6.376;2022-12-28T09:03:42;100937.28;;;8.42;87.55
55456;BME280;63021;52.836;6.376;2022-12-28T09:06:13;100937.28;;;8.42;87.93
55456;BME280;63021;52.836;6.376;2022-12-28T09:08:40;100945.97;;;8.44;87.62
55456;BME280;63021;52.836;6.376;2022-12-28T09:11:11;100949.38;;;8.46;87.32
55456;BME280;63021;52.836;6.376;2022-12-28T09:13:38;100941.28;;;8.48;87.88
55456;BME280;63021;52.836;6.376;2022-12-28T09:16:15;100947.13;;;8.52;87.58
55456;BME280;63021;52.836;6.376;2022-12-28T09:18:42;100939.91;;;8.54;87.31
55456;BME280;63021;52.836;6.376;2022-12-28T09:21:11;100940.59;;;8.56;87.55
55456;BME280;63021;52.836;6.376;2022-12-28T09:23:41;100929.03;;;8.57;88.09
55456;BME280;63021;52.836;6.376;2022-12-28T09:26:12;100936.84;;;8.58;88.33
55456;BME280;63021;52.836;6.376;2022-12-28T09:28:38;100942.03;;;8.60;88.50
55456;BME280;63021;52.836;6.376;2022-12-28T09:31:05;100942.84;;;8.60;88.22
55456;BME280;63021;52.836;6.376;2022-12-28T09:33:31;100940.06;;;8.62;87.49
55456;BME280;63021;52.836;6.376;2022-12-28T09:36:16;100945.38;;;8.62;87.87
55456;BME280;63021;52.836;6.376;2022-12-28T09:38:42;100949.59;;;8.64;87.88
55456;BME280;63021;52.836;6.376;2022-12-28T09:43:56;100944.13;;;8.66;88.14
55456;BME280;63021;52.836;6.376;2022-12-28T09:46:25;100945.84;;;8.67;87.83
55456;BME280;63021;52.836;6.376;2022-12-28T09:48:54;100952.84;;;8.68;88.19
55456;BME280;63021;52.836;6.376;2022-12-28T09:51:28;100944.72;;;8.70;88.14
55456;BME280;63021;52.836;6.376;2022-12-28T09:53:55;100942.78;;;8.72;88.61
55456;BME280;63021;52.836;6.376;2022-12-28T09:56:31;100950.75;;;8.72;88.59
55456;BME280;63021;52.836;6.376;2022-12-28T09:58:58;100952.28;;;8.74;87.39
55456;BME280;63021;52.836;6.376;2022-12-28T10:01:25;100944.47;;;8.73;87.43
55456;BME280;63021;52.836;6.376;2022-12-28T10:04:00;100946.84;;;8.76;88.17
55456;BME280;63021;52.836;6.376;2022-12-28T10:06:29;100944.06;;;8.77;87.63
55456;BME280;63021;52.836;6.376;2022-12-28T10:08:59;100950.34;;;8.76;88.14
55456;BME280;63021;52.836;6.376;2022-12-28T10:11:38;100945.47;;;8.81;87.71
55456;BME280;63021;52.836;6.376;2022-12-28T10:16:43;100941.13;;;8.80;87.33
55456;BME280;63021;52.836;6.376;2022-12-28T10:19:15;100944.66;;;8.81;87.42
55456;BME280;63021;52.836;6.376;2022-12-28T10:21:42;100941.84;;;8.82;88.29
55456;BME280;63021;52.836;6.376;2022-12-28T10:24:11;100938.09;;;8.85;87.86
55456;BME280;63021;52.836;6.376;2022-12-28T10:26:38;100939.06;;;8.84;88.13
55456;BME280;63021;52.836;6.376;2022-12-28T10:29:04;100947.88;;;8.84;87.37
55456;BME280;63021;52.836;6.376;2022-12-28T10:34:00;100945.66;;;8.90;87.39
55456;BME280;63021;52.836;6.376;2022-12-28T10:36:31;100936.72;;;8.91;87.50
55456;BME280;63021;52.836;6.376;2022-12-28T10:38:58;100927.91;;;8.90;87.52
55456;BME280;63021;52.836;6.376;2022-12-28T10:41:33;100933.09;;;8.92;87.46
55456;BME280;63021;52.836;6.376;2022-12-28T10:44:11;100919.13;;;8.90;87.35
55456;BME280;63021;52.836;6.376;2022-12-28T10:46:49;100923.31;;;8.92;87.54
55456;BME280;63021;52.836;6.376;2022-12-28T10:49:15;100927.50;;;8.95;87.73
55456;BME280;63021;52.836;6.376;2022-12-28T10:51:58;100921.22;;;8.96;87.26
55456;BME280;63021;52.836;6.376;2022-12-28T10:54:24;100911.84;;;8.92;88.06
55456;BME280;63021;52.836;6.376;2022-12-28T10:56:49;100917.00;;;8.93;87.90
55456;BME280;63021;52.836;6.376;2022-12-28T10:59:23;100909.78;;;8.95;87.36
55456;BME280;63021;52.836;6.376;2022-12-28T11:01:49;100906.25;;;8.95;87.53
55456;BME280;63021;52.836;6.376;2022-12-28T11:04:23;100906.25;;;8.95;87.60
55456;BME280;63021;52.836;6.376;2022-12-28T11:06:56;100902.50;;;8.97;87.34
55456;BME280;63021;52.836;6.376;2022-12-28T11:09:32;100892.84;;;8.96;87.44
55456;BME280;63021;52.836;6.376;2022-12-28T11:12:22;100894.66;;;8.96;87.36
55456;BME280;63021;52.836;6.376;2022-12-28T11:14:48;100888.66;;;8.94;87.32
55456;BME280;63021;52.836;6.376;2022-12-28T11:17:24;100892.28;;;8.93;87.81
55456;BME280;63021;52.836;6.376;2022-12-28T11:19:54;100888.22;;;8.89;87.62
55456;BME280;63021;52.836;6.376;2022-12-28T11:22:23;100885.56;;;8.89;87.75
55456;BME280;63021;52.836;6.376;2022-12-28T11:24:50;100879.44;;;8.88;88.04
55456;BME280;63021;52.836;6.376;2022-12-28T11:27:17;100874.13;;;8.88;87.92
55456;BME280;63021;52.836;6.376;2022-12-28T11:29:46;100875.78;;;8.89;87.73
55456;BME280;63021;52.836;6.376;2022-12-28T11:34:51;100858.06;;;8.90;88.19
55456;BME280;63021;52.836;6.376;2022-12-28T11:37:18;100874.13;;;8.88;87.72
55456;BME280;63021;52.836;6.376;2022-12-28T11:39:45;100863.38;;;8.90;87.89
55456;BME280;63021;52.836;6.376;2022-12-28T11:44:58;100861.66;;;8.89;87.91
55456;BME280;63021;52.836;6.376;2022-12-28T11:47:29;100859.03;;;8.89;87.90
55456;BME280;63021;52.836;6.376;2022-12-28T11:52:45;100852.03;;;8.88;87.61
55456;BME280;63021;52.836;6.376;2022-12-28T11:57:45;100856.38;;;8.89;88.15
55456;BME280;63021;52.836;6.376;2022-12-28T12:02:47;100846.47;;;8.91;87.92
55456;BME280;63021;52.836;6.376;2022-12-28T12:10:37;100835.84;;;8.91;87.77
55456;BME280;63021;52.836;6.376;2022-12-28T12:15:47;100829.69;;;8.90;87.68
55456;BME280;63021;52.836;6.376;2022-12-28T12:18:24;100833.56;;;8.86;88.18
55456;BME280;63021;52.836;6.376;2022-12-28T12:21:02;100837.91;;;8.87;87.83
55456;BME280;63021;52.836;6.376;2022-12-28T12:26:19;100821.03;;;8.88;87.63
55456;BME280;63021;52.836;6.376;2022-12-28T12:28:53;100825.47;;;8.88;87.55
55456;BME280;63021;52.836;6.376;2022-12-28T12:31:32;100809.81;;;8.84;88.25
55456;BME280;63021;52.836;6.376;2022-12-28T12:34:23;100806.34;;;8.84;87.97
55456;BME280;63021;52.836;6.376;2022-12-28T12:40:00;100805.22;;;8.87;88.15
55456;BME280;63021;52.836;6.376;2022-12-28T13:01:45;100777.13;;;8.84;88.35
55456;BME280;63021;52.836;6.376;2022-12-28T13:04:23;100774.63;;;8.82;87.97
55456;BME280;63021;52.836;6.376;2022-12-28T13:06:55;100765.69;;;8.83;87.44
55456;BME280;63021;52.836;6.376;2022-12-28T13:09:22;100768.34;;;8.83;88.05
55456;BME280;63021;52.836;6.376;2022-12-28T13:11:50;100764.97;;;8.81;88.04
55456;BME280;63021;52.836;6.376;2022-12-28T13:14:20;100763.03;;;8.83;88.53
55456;BME280;63021;52.836;6.376;2022-12-28T13:16:52;100766.53;;;8.84;88.45
55456;BME280;63021;52.836;6.376;2022-12-28T13:19:21;100764.00;;;8.82;87.71
55456;BME280;63021;52.836;6.376;2022-12-28T13:21:48;100763.16;;;8.82;88.38
55456;BME280;63021;52.836;6.376;2022-12-28T13:26:43;100750.72;;;8.82;87.92
55456;BME280;63021;52.836;6.376;2022-12-28T13:29:09;100741.81;;;8.83;88.12
55456;BME280;63021;52.836;6.376;2022-12-28T13:31:39;100747.13;;;8.83;88.26
55456;BME280;63021;52.836;6.376;2022-12-28T13:36:56;100738.88;;;8.87;87.58
55456;BME280;63021;52.836;6.376;2022-12-28T13:39:27;100722.94;;;8.87;88.18
55456;BME280;63021;52.836;6.376;2022-12-28T13:47:13;100729.34;;;8.84;87.96
55456;BME280;63021;52.836;6.376;2022-12-28T13:50:09;100732.84;;;8.84;87.03
55456;BME280;63021;52.836;6.376;2022-12-28T13:52:56;100722.50;;;8.81;87.25
55456;BME280;63021;52.836;6.376;2022-12-28T13:55:28;100726.97;;;8.81;87.39
55456;BME280;63021;52.836;6.376;2022-12-28T13:57:57;100720.81;;;8.80;87.82
55456;BME280;63021;52.836;6.376;2022-12-28T14:00:28;100712.16;;;8.78;87.27
55456;BME280;63021;52.836;6.376;2022-12-28T14:02:55;100705.03;;;8.79;87.09
55456;BME280;63021;52.836;6.376;2022-12-28T14:05:27;100698.06;;;8.78;87.65
55456;BME280;63021;52.836;6.376;2022-12-28T14:07:55;100705.31;;;8.76;87.70
55456;BME280;63021;52.836;6.376;2022-12-28T14:10:22;100689.53;;;8.74;86.94
55456;BME280;63021;52.836;6.376;2022-12-28T14:12:48;100679.75;;;8.75;87.08
55456;BME280;63021;52.836;6.376;2022-12-28T14:15:15;100665.66;;;8.74;87.31
55456;BME280;63021;52.836;6.376;2022-12-28T14:17:42;100655.03;;;8.74;86.91
55456;BME280;63021;52.836;6.376;2022-12-28T14:20:09;100640.94;;;8.74;86.23
55456;BME280;63021;52.836;6.376;2022-12-28T14:22:36;100634.75;;;8.73;87.21
55456;BME280;63021;52.836;6.376;2022-12-28T14:25:09;100629.16;;;8.76;86.56
55456;BME280;63021;52.836;6.376;2022-12-28T14:27:39;100637.13;;;8.76;86.97
55456;BME280;63021;52.836;6.376;2022-12-28T14:30:19;100643.31;;;8.77;87.10
55456;BME280;63021;52.836;6.376;2022-12-28T14:32:45;100642.44;;;8.76;86.32
55456;BME280;63021;52.836;6.376;2022-12-28T14:35:20;100638.00;;;8.77;86.77
55456;BME280;63021;52.836;6.376;2022-12-28T14:37:51;100638.13;;;8.75;86.53
55456;BME280;63021;52.836;6.376;2022-12-28T14:40:29;100636.16;;;8.77;86.35
55456;BME280;63021;52.836;6.376;2022-12-28T14:42:55;100631.00;;;8.76;86.65
55456;BME280;63021;52.836;6.376;2022-12-28T14:45:51;100631.81;;;8.76;86.57
55456;BME280;63021;52.836;6.376;2022-12-28T14:48:36;100616.91;;;8.75;86.67
55456;BME280;63021;52.836;6.376;2022-12-28T14:51:23;100614.25;;;8.75;86.62
55456;BME280;63021;52.836;6.376;2022-12-28T14:54:17;100599.97;;;8.76;85.89